EZY336Z EGKK-LEPA
Flight info
| Callsign | EZY336Z |
|---|---|
| Flight time | 2h 10m |
| Altitude | 23000 |
| Route | SFD Y47 DRAKE/N0424F330 L151 SITET UN859 SOPIL DCT BALAN DCT EVPOK DCT NARAK DCT GAI DCT LOMRA DCT ROCAN DCT IBRAP DCT LUKEV DCT LORES |
| Aircraft | A20N/M-SDE2E3FGHIRWXY/LB1 |
Departure
| Time | 2026-05-04 10:50 |
|---|---|
| Airport | London Gatwick Airport (EGKK) |
Arrival
| Time | 2026-05-04 13:00 |
|---|---|
| Airport | Palma de Mallorca Airport (LEPA) |
| Time | Latitude | Longitude | Altitude | Speed | Heading |
|---|---|---|---|---|---|
| 2026-05-04 10:22 | 51.15560 | -0.17004 | 211 ft | 0 kts | 168° |
| 2026-05-04 10:33 | 51.15568 | -0.17007 | 211 ft | 1 kts | 174° |
| 2026-05-04 10:33 | 51.15576 | -0.17008 | 208 ft | 1 kts | 180° |
| 2026-05-04 10:33 | 51.15585 | -0.17007 | 204 ft | 0 kts | 185° |
| 2026-05-04 10:34 | 51.15595 | -0.17005 | 204 ft | 2 kts | 191° |
| 2026-05-04 10:34 | 51.15610 | -0.17000 | 210 ft | 2 kts | 197° |
| 2026-05-04 10:34 | 51.15624 | -0.16992 | 215 ft | 2 kts | 207° |
| 2026-05-04 10:34 | 51.15637 | -0.16980 | 212 ft | 2 kts | 219° |
| 2026-05-04 10:35 | 51.15648 | -0.16964 | 212 ft | 2 kts | 232° |
| 2026-05-04 10:35 | 51.15656 | -0.16944 | 213 ft | 2 kts | 247° |
| 2026-05-04 10:35 | 51.15659 | -0.16932 | 215 ft | 0 kts | 255° |
| 2026-05-04 10:40 | 51.15658 | -0.16940 | 204 ft | 2 kts | 255° |
| 2026-05-04 10:40 | 51.15651 | -0.16981 | 208 ft | 6 kts | 255° |
| 2026-05-04 10:41 | 51.15638 | -0.17058 | 204 ft | 9 kts | 255° |
| 2026-05-04 10:41 | 51.15622 | -0.17168 | 206 ft | 12 kts | 257° |
| 2026-05-04 10:41 | 51.15605 | -0.17308 | 215 ft | 14 kts | 258° |
| 2026-05-04 10:41 | 51.15553 | -0.17433 | 206 ft | 13 kts | 179° |
| 2026-05-04 10:42 | 51.15458 | -0.17407 | 207 ft | 15 kts | 168° |
| 2026-05-04 10:42 | 51.15347 | -0.17382 | 214 ft | 17 kts | 188° |
| 2026-05-04 10:42 | 51.15291 | -0.17522 | 204 ft | 16 kts | 262° |
| 2026-05-04 10:42 | 51.15266 | -0.17711 | 207 ft | 18 kts | 255° |
| 2026-05-04 10:43 | 51.15237 | -0.17922 | 207 ft | 20 kts | 258° |
| 2026-05-04 10:44 | 51.14936 | -0.19466 | 211 ft | 17 kts | 259° |
| 2026-05-04 10:45 | 51.14911 | -0.19667 | 216 ft | 19 kts | 259° |
| 2026-05-04 10:45 | 51.14881 | -0.19888 | 214 ft | 22 kts | 257° |
| 2026-05-04 10:45 | 51.14845 | -0.20139 | 204 ft | 25 kts | 257° |
| 2026-05-04 10:45 | 51.14806 | -0.20417 | 210 ft | 26 kts | 258° |
| 2026-05-04 10:46 | 51.14768 | -0.20705 | 212 ft | 27 kts | 258° |
| 2026-05-04 10:46 | 51.14728 | -0.21004 | 208 ft | 28 kts | 258° |
| 2026-05-04 10:46 | 51.14713 | -0.21119 | 208 ft | 0 kts | 256° |
| 2026-05-04 10:47 | 51.14709 | -0.21136 | 208 ft | 3 kts | 253° |
| 2026-05-04 10:47 | 51.14700 | -0.21189 | 205 ft | 7 kts | 254° |
| 2026-05-04 10:47 | 51.14684 | -0.21276 | 207 ft | 10 kts | 253° |
| 2026-05-04 10:47 | 51.14627 | -0.21322 | 209 ft | 10 kts | 183° |
| 2026-05-04 10:49 | 51.14798 | -0.19174 | 213 ft | 140 kts | 78° |
| 2026-05-04 10:49 | 51.15027 | -0.17523 | 523 ft | 154 kts | 76° |
| 2026-05-04 10:50 | 51.15255 | -0.15839 | 1055 ft | 159 kts | 79° |
| 2026-05-04 10:51 | 51.12964 | -0.03868 | 4825 ft | 245 kts | 173° |
| 2026-05-04 10:52 | 51.11192 | -0.03593 | 5362 ft | 264 kts | 174° |
| 2026-05-04 10:52 | 51.09344 | -0.03251 | 5730 ft | 269 kts | 169° |
| 2026-05-04 10:52 | 51.07510 | -0.02550 | 6366 ft | 272 kts | 165° |
| 2026-05-04 10:54 | 50.94661 | 0.03461 | 10365 ft | 282 kts | 165° |
| 2026-05-04 10:54 | 50.92768 | 0.04354 | 11181 ft | 286 kts | 165° |
| 2026-05-04 10:56 | 50.79551 | 0.10558 | 16325 ft | 308 kts | 164° |
| 2026-05-04 10:56 | 50.77475 | 0.11460 | 17054 ft | 310 kts | 170° |
| 2026-05-04 10:56 | 50.75322 | 0.11718 | 17760 ft | 313 kts | 183° |
| 2026-05-04 10:57 | 50.73164 | 0.11183 | 18423 ft | 316 kts | 193° |
| 2026-05-04 10:57 | 50.70968 | 0.10357 | 18650 ft | 334 kts | 193° |
| 2026-05-04 10:57 | 50.68641 | 0.09499 | 18814 ft | 352 kts | 193° |
| 2026-05-04 10:57 | 50.66343 | 0.08662 | 18989 ft | 367 kts | 193° |
| 2026-05-04 10:58 | 50.63837 | 0.07754 | 19534 ft | 370 kts | 193° |
| 2026-05-04 10:58 | 50.61333 | 0.06850 | 20229 ft | 370 kts | 193° |
| 2026-05-04 10:58 | 50.58815 | 0.05943 | 20836 ft | 372 kts | 193° |
| 2026-05-04 10:58 | 50.56282 | 0.05031 | 21434 ft | 374 kts | 193° |
| 2026-05-04 10:59 | 50.53735 | 0.04115 | 22051 ft | 376 kts | 194° |
| 2026-05-04 10:59 | 50.51176 | 0.03196 | 22650 ft | 379 kts | 194° |
| 2026-05-04 10:59 | 50.48597 | 0.02271 | 23241 ft | 381 kts | 194° |
| 2026-05-04 10:59 | 50.46012 | 0.01344 | 23674 ft | 384 kts | 194° |
| 2026-05-04 11:00 | 50.43398 | 0.00408 | 23775 ft | 384 kts | 194° |
| 2026-05-04 11:01 | 50.25337 | -0.06043 | 24010 ft | 382 kts | 194° |
| 2026-05-04 11:02 | 50.22715 | -0.06676 | 24008 ft | 383 kts | 184° |
| 2026-05-04 11:02 | 50.20042 | -0.06411 | 24007 ft | 387 kts | 172° |
| 2026-05-04 11:05 | 49.83819 | 0.10296 | 24010 ft | 388 kts | 168° |
| 2026-05-04 11:06 | 49.81194 | 0.11322 | 24009 ft | 388 kts | 168° |
| 2026-05-04 11:06 | 49.78575 | 0.12344 | 24013 ft | 388 kts | 168° |
| 2026-05-04 11:06 | 49.75955 | 0.13365 | 24011 ft | 388 kts | 168° |
| 2026-05-04 11:06 | 49.73459 | 0.14336 | 24015 ft | 388 kts | 167° |
| 2026-05-04 11:08 | 49.55156 | 0.21639 | 24018 ft | 388 kts | 167° |
| 2026-05-04 11:10 | 49.36931 | 0.28933 | 23993 ft | 386 kts | 166° |
| 2026-05-04 11:12 | 49.18828 | 0.36427 | 23979 ft | 384 kts | 166° |
| 2026-05-04 11:12 | 49.16250 | 0.37514 | 23970 ft | 384 kts | 166° |
| 2026-05-04 11:12 | 49.13663 | 0.38601 | 23975 ft | 384 kts | 166° |
| 2026-05-04 11:12 | 49.11127 | 0.39666 | 23974 ft | 384 kts | 166° |
| 2026-05-04 11:13 | 49.08540 | 0.40749 | 23969 ft | 384 kts | 166° |
| 2026-05-04 11:13 | 49.05981 | 0.41821 | 23966 ft | 383 kts | 166° |
| 2026-05-04 11:13 | 49.03393 | 0.42903 | 23970 ft | 383 kts | 166° |
| 2026-05-04 11:13 | 49.00828 | 0.43975 | 23955 ft | 384 kts | 166° |
| 2026-05-04 11:14 | 48.98229 | 0.45059 | 23970 ft | 388 kts | 166° |
| 2026-05-04 11:14 | 48.95636 | 0.46140 | 23969 ft | 387 kts | 166° |
| 2026-05-04 11:14 | 48.93036 | 0.47222 | 23969 ft | 387 kts | 166° |
| 2026-05-04 11:16 | 48.74837 | 0.54712 | 23963 ft | 387 kts | 166° |
| 2026-05-04 11:16 | 48.72216 | 0.55730 | 23961 ft | 387 kts | 166° |
| 2026-05-04 11:16 | 48.69614 | 0.56740 | 23961 ft | 387 kts | 166° |
| 2026-05-04 11:17 | 48.66996 | 0.57760 | 23962 ft | 387 kts | 166° |
| 2026-05-04 11:17 | 48.64389 | 0.58777 | 23958 ft | 387 kts | 167° |
| 2026-05-04 11:19 | 48.46139 | 0.65979 | 23956 ft | 388 kts | 166° |
| 2026-05-04 11:19 | 48.43531 | 0.67049 | 23955 ft | 387 kts | 166° |
| 2026-05-04 11:19 | 48.40936 | 0.68110 | 23955 ft | 388 kts | 166° |
| 2026-05-04 11:19 | 48.38322 | 0.69174 | 23955 ft | 388 kts | 166° |
| 2026-05-04 11:20 | 48.35722 | 0.70229 | 23956 ft | 388 kts | 166° |
| 2026-05-04 11:20 | 48.33110 | 0.71287 | 23955 ft | 388 kts | 166° |
| 2026-05-04 11:20 | 48.30503 | 0.72341 | 23955 ft | 388 kts | 166° |
| 2026-05-04 11:20 | 48.27896 | 0.73395 | 23955 ft | 388 kts | 166° |
| 2026-05-04 11:22 | 48.09613 | 0.80616 | 23952 ft | 389 kts | 166° |
| 2026-05-04 11:22 | 48.06989 | 0.81644 | 23952 ft | 389 kts | 166° |
| 2026-05-04 11:23 | 48.04375 | 0.82668 | 23950 ft | 389 kts | 166° |
| 2026-05-04 11:23 | 48.01761 | 0.83691 | 23950 ft | 389 kts | 166° |
| 2026-05-04 11:24 | 47.86110 | 0.89791 | 23949 ft | 387 kts | 166° |
| 2026-05-04 11:25 | 47.83505 | 0.90803 | 23950 ft | 387 kts | 166° |
| 2026-05-04 11:25 | 47.80896 | 0.91815 | 23949 ft | 387 kts | 166° |
| 2026-05-04 11:25 | 47.78294 | 0.92825 | 23951 ft | 386 kts | 167° |
| 2026-05-04 11:26 | 47.73113 | 0.94831 | 23949 ft | 385 kts | 167° |
| 2026-05-04 11:27 | 47.54957 | 1.01824 | 23949 ft | 384 kts | 167° |
| 2026-05-04 11:28 | 47.52377 | 1.02814 | 23949 ft | 384 kts | 167° |
| 2026-05-04 11:28 | 47.49780 | 1.03809 | 23950 ft | 384 kts | 167° |
| 2026-05-04 11:28 | 47.47186 | 1.04802 | 23950 ft | 385 kts | 167° |
| 2026-05-04 11:28 | 47.44588 | 1.05746 | 23949 ft | 384 kts | 170° |
| 2026-05-04 11:29 | 47.41947 | 1.06301 | 23947 ft | 383 kts | 176° |
| 2026-05-04 11:29 | 47.39291 | 1.06399 | 23947 ft | 382 kts | 182° |
| 2026-05-04 11:29 | 47.36632 | 1.06314 | 23946 ft | 382 kts | 181° |
| 2026-05-04 11:29 | 47.33969 | 1.06240 | 23947 ft | 382 kts | 181° |
| 2026-05-04 11:31 | 47.15389 | 1.05801 | 23949 ft | 383 kts | 181° |
| 2026-05-04 11:33 | 46.96699 | 1.05274 | 23949 ft | 383 kts | 182° |
| 2026-05-04 11:33 | 46.94035 | 1.05150 | 23946 ft | 383 kts | 182° |
| 2026-05-04 11:33 | 46.91374 | 1.05029 | 23947 ft | 383 kts | 182° |
| 2026-05-04 11:34 | 46.88712 | 1.04911 | 23947 ft | 383 kts | 182° |
| 2026-05-04 11:34 | 46.86046 | 1.04795 | 23947 ft | 383 kts | 182° |
| 2026-05-04 11:34 | 46.83379 | 1.04681 | 23947 ft | 383 kts | 182° |
| 2026-05-04 11:34 | 46.80750 | 1.04569 | 23947 ft | 383 kts | 182° |
| 2026-05-04 11:35 | 46.78089 | 1.04456 | 23948 ft | 383 kts | 182° |
| 2026-05-04 11:35 | 46.75422 | 1.04343 | 23948 ft | 383 kts | 182° |
| 2026-05-04 11:35 | 46.72758 | 1.04229 | 23946 ft | 383 kts | 182° |
| 2026-05-04 11:35 | 46.70093 | 1.04116 | 23947 ft | 383 kts | 182° |
| 2026-05-04 11:36 | 46.67429 | 1.04003 | 23944 ft | 383 kts | 182° |
| 2026-05-04 11:36 | 46.64765 | 1.03891 | 23944 ft | 383 kts | 182° |
| 2026-05-04 11:36 | 46.62100 | 1.03779 | 23950 ft | 383 kts | 182° |
| 2026-05-04 11:36 | 46.59430 | 1.03669 | 23939 ft | 383 kts | 182° |
| 2026-05-04 11:37 | 46.56767 | 1.03553 | 23945 ft | 382 kts | 182° |
| 2026-05-04 11:37 | 46.54115 | 1.03445 | 23946 ft | 383 kts | 182° |
| 2026-05-04 11:37 | 46.51446 | 1.03610 | 23947 ft | 384 kts | 175° |
| 2026-05-04 11:37 | 46.48804 | 1.04234 | 23947 ft | 385 kts | 169° |
| 2026-05-04 11:38 | 46.46196 | 1.05127 | 23944 ft | 385 kts | 169° |
| 2026-05-04 11:38 | 46.43583 | 1.06015 | 23944 ft | 385 kts | 169° |
| 2026-05-04 11:38 | 46.40981 | 1.06892 | 23944 ft | 385 kts | 169° |
| 2026-05-04 11:38 | 46.38368 | 1.07767 | 23945 ft | 385 kts | 169° |
| 2026-05-04 11:39 | 46.35749 | 1.08641 | 23944 ft | 385 kts | 169° |
| 2026-05-04 11:39 | 46.33141 | 1.09511 | 23944 ft | 385 kts | 169° |
| 2026-05-04 11:40 | 46.18368 | 1.14418 | 23949 ft | 385 kts | 169° |
| 2026-05-04 11:41 | 46.15759 | 1.15283 | 23948 ft | 385 kts | 169° |
| 2026-05-04 11:41 | 46.13156 | 1.16145 | 23955 ft | 384 kts | 169° |
| 2026-05-04 11:41 | 46.10555 | 1.17005 | 23955 ft | 384 kts | 169° |
| 2026-05-04 11:41 | 46.07949 | 1.17865 | 23957 ft | 384 kts | 169° |
| 2026-05-04 11:42 | 46.05344 | 1.18724 | 23959 ft | 384 kts | 169° |
| 2026-05-04 11:42 | 46.02745 | 1.19581 | 23957 ft | 384 kts | 169° |
| 2026-05-04 11:42 | 46.00131 | 1.20442 | 23963 ft | 384 kts | 169° |
| 2026-05-04 11:42 | 45.97525 | 1.21299 | 23964 ft | 384 kts | 169° |
| 2026-05-04 11:43 | 45.94918 | 1.22156 | 23964 ft | 384 kts | 170° |
| 2026-05-04 11:43 | 45.92312 | 1.23012 | 23966 ft | 384 kts | 170° |
| 2026-05-04 11:43 | 45.89710 | 1.23865 | 23966 ft | 384 kts | 170° |
| 2026-05-04 11:43 | 45.87099 | 1.24721 | 23966 ft | 384 kts | 170° |
| 2026-05-04 11:44 | 45.84494 | 1.25574 | 23967 ft | 384 kts | 170° |
| 2026-05-04 11:44 | 45.81896 | 1.26423 | 23967 ft | 384 kts | 170° |
| 2026-05-04 11:44 | 45.79284 | 1.27277 | 23965 ft | 384 kts | 170° |
| 2026-05-04 11:44 | 45.76679 | 1.28127 | 23962 ft | 384 kts | 170° |
| 2026-05-04 11:45 | 45.74105 | 1.28967 | 23961 ft | 384 kts | 170° |
| 2026-05-04 11:45 | 45.71472 | 1.29825 | 23961 ft | 384 kts | 170° |
| 2026-05-04 11:45 | 45.68867 | 1.30673 | 23946 ft | 384 kts | 170° |
| 2026-05-04 11:45 | 45.66255 | 1.31522 | 23946 ft | 384 kts | 170° |
| 2026-05-04 11:46 | 45.63647 | 1.32369 | 23949 ft | 384 kts | 170° |
| 2026-05-04 11:46 | 45.61044 | 1.33215 | 23950 ft | 384 kts | 170° |
| 2026-05-04 11:46 | 45.58435 | 1.34061 | 23947 ft | 384 kts | 170° |
| 2026-05-04 11:46 | 45.55828 | 1.34905 | 23943 ft | 384 kts | 169° |
| 2026-05-04 11:47 | 45.53222 | 1.35748 | 23943 ft | 385 kts | 169° |
| 2026-05-04 11:47 | 45.50645 | 1.36581 | 23944 ft | 384 kts | 169° |
| 2026-05-04 11:47 | 45.48000 | 1.37436 | 23945 ft | 385 kts | 169° |
| 2026-05-04 11:47 | 45.45391 | 1.38278 | 23945 ft | 384 kts | 169° |
| 2026-05-04 11:48 | 45.42781 | 1.39119 | 23944 ft | 385 kts | 169° |
| 2026-05-04 11:48 | 45.40178 | 1.39958 | 23950 ft | 385 kts | 169° |
| 2026-05-04 11:48 | 45.37566 | 1.40799 | 23944 ft | 385 kts | 169° |
| 2026-05-04 11:48 | 45.34949 | 1.41640 | 23945 ft | 385 kts | 169° |
| 2026-05-04 11:49 | 45.32336 | 1.42480 | 23943 ft | 385 kts | 169° |
| 2026-05-04 11:49 | 45.29720 | 1.43319 | 23942 ft | 385 kts | 169° |
| 2026-05-04 11:49 | 45.27145 | 1.44145 | 23941 ft | 385 kts | 170° |
| 2026-05-04 11:49 | 45.24494 | 1.44994 | 23941 ft | 385 kts | 170° |
| 2026-05-04 11:50 | 45.21881 | 1.45830 | 23941 ft | 385 kts | 170° |
| 2026-05-04 11:50 | 45.19299 | 1.46655 | 23940 ft | 385 kts | 170° |
| 2026-05-04 11:50 | 45.16684 | 1.47491 | 23938 ft | 386 kts | 170° |
| 2026-05-04 11:50 | 45.14063 | 1.48327 | 23938 ft | 386 kts | 169° |
| 2026-05-04 11:51 | 45.11447 | 1.49161 | 23939 ft | 386 kts | 170° |
| 2026-05-04 11:51 | 45.08822 | 1.49997 | 23939 ft | 386 kts | 170° |
| 2026-05-04 11:51 | 45.06208 | 1.50829 | 23938 ft | 385 kts | 170° |
| 2026-05-04 11:51 | 45.03587 | 1.51663 | 23939 ft | 386 kts | 170° |
| 2026-05-04 11:52 | 45.00967 | 1.52495 | 23939 ft | 386 kts | 170° |
| 2026-05-04 11:52 | 44.98350 | 1.53326 | 23935 ft | 385 kts | 170° |
| 2026-05-04 11:52 | 44.95738 | 1.54155 | 23942 ft | 385 kts | 170° |
| 2026-05-04 11:52 | 44.93125 | 1.54982 | 23948 ft | 385 kts | 170° |
| 2026-05-04 11:53 | 44.90519 | 1.55806 | 23952 ft | 385 kts | 170° |
| 2026-05-04 11:53 | 44.87899 | 1.56634 | 23945 ft | 385 kts | 170° |
| 2026-05-04 11:53 | 44.85288 | 1.57459 | 23947 ft | 385 kts | 170° |
| 2026-05-04 11:53 | 44.82678 | 1.58282 | 23953 ft | 385 kts | 170° |
| 2026-05-04 11:55 | 44.64382 | 1.64033 | 23948 ft | 385 kts | 170° |
| 2026-05-04 11:55 | 44.61768 | 1.64852 | 23945 ft | 385 kts | 170° |
| 2026-05-04 11:56 | 44.59154 | 1.65670 | 23938 ft | 385 kts | 170° |
| 2026-05-04 11:56 | 44.56536 | 1.66488 | 23948 ft | 386 kts | 170° |
| 2026-05-04 11:56 | 44.53918 | 1.67306 | 23952 ft | 385 kts | 170° |
| 2026-05-04 11:56 | 44.51307 | 1.68121 | 23948 ft | 385 kts | 170° |
| 2026-05-04 11:57 | 44.48685 | 1.68939 | 23948 ft | 385 kts | 170° |
| 2026-05-04 11:57 | 44.46069 | 1.69753 | 23957 ft | 385 kts | 170° |
| 2026-05-04 11:57 | 44.43494 | 1.70554 | 23951 ft | 385 kts | 170° |
| 2026-05-04 11:57 | 44.40879 | 1.71368 | 23947 ft | 385 kts | 170° |
| 2026-05-04 11:58 | 44.38265 | 1.72180 | 23952 ft | 386 kts | 170° |
| 2026-05-04 11:58 | 44.35631 | 1.72997 | 23955 ft | 386 kts | 170° |
| 2026-05-04 11:58 | 44.33011 | 1.73810 | 23950 ft | 386 kts | 170° |
| 2026-05-04 11:58 | 44.30392 | 1.74621 | 23955 ft | 385 kts | 170° |
| 2026-05-04 11:59 | 44.27759 | 1.75290 | 23956 ft | 384 kts | 174° |
| 2026-05-04 11:59 | 44.25114 | 1.75868 | 23950 ft | 385 kts | 174° |
| 2026-05-04 11:59 | 44.22476 | 1.76450 | 23950 ft | 385 kts | 173° |
| 2026-05-04 11:59 | 44.19826 | 1.77036 | 23948 ft | 385 kts | 174° |
| 2026-05-04 12:00 | 44.17184 | 1.77622 | 23954 ft | 384 kts | 174° |
| 2026-05-04 12:00 | 44.14554 | 1.78203 | 23955 ft | 384 kts | 173° |
| 2026-05-04 12:00 | 44.11907 | 1.78788 | 23954 ft | 385 kts | 174° |
| 2026-05-04 12:00 | 44.09262 | 1.79371 | 23955 ft | 385 kts | 174° |
| 2026-05-04 12:01 | 44.06615 | 1.79953 | 23955 ft | 385 kts | 174° |
| 2026-05-04 12:01 | 44.03965 | 1.80536 | 23950 ft | 385 kts | 174° |
| 2026-05-04 12:02 | 43.88038 | 1.83135 | 23949 ft | 384 kts | 179° |
| 2026-05-04 12:03 | 43.85376 | 1.83393 | 23956 ft | 384 kts | 179° |
| 2026-05-04 12:03 | 43.82712 | 1.83652 | 23954 ft | 384 kts | 178° |
| 2026-05-04 12:03 | 43.80050 | 1.83911 | 23953 ft | 384 kts | 179° |
| 2026-05-04 12:03 | 43.77383 | 1.84169 | 23957 ft | 384 kts | 179° |
| 2026-05-04 12:04 | 43.74711 | 1.84429 | 23955 ft | 384 kts | 179° |
| 2026-05-04 12:04 | 43.72048 | 1.84686 | 23956 ft | 384 kts | 179° |
| 2026-05-04 12:04 | 43.69381 | 1.84944 | 23954 ft | 384 kts | 179° |
| 2026-05-04 12:04 | 43.66718 | 1.85201 | 23954 ft | 384 kts | 179° |
| 2026-05-04 12:05 | 43.64051 | 1.85459 | 23955 ft | 384 kts | 179° |
| 2026-05-04 12:05 | 43.61382 | 1.85716 | 23952 ft | 384 kts | 179° |
| 2026-05-04 12:05 | 43.58714 | 1.85974 | 23954 ft | 385 kts | 179° |
| 2026-05-04 12:05 | 43.56048 | 1.86230 | 23951 ft | 384 kts | 179° |
| 2026-05-04 12:06 | 43.53378 | 1.86487 | 23950 ft | 384 kts | 179° |
| 2026-05-04 12:06 | 43.50712 | 1.86743 | 23953 ft | 384 kts | 179° |
| 2026-05-04 12:06 | 43.48044 | 1.86999 | 23950 ft | 384 kts | 179° |
| 2026-05-04 12:06 | 43.45423 | 1.87251 | 23949 ft | 384 kts | 179° |
| 2026-05-04 12:07 | 43.42757 | 1.87507 | 23951 ft | 384 kts | 179° |
| 2026-05-04 12:07 | 43.40086 | 1.87764 | 23938 ft | 384 kts | 179° |
| 2026-05-04 12:07 | 43.37420 | 1.88020 | 23945 ft | 384 kts | 179° |
| 2026-05-04 12:07 | 43.34752 | 1.88274 | 23950 ft | 384 kts | 179° |
| 2026-05-04 12:08 | 43.32092 | 1.88528 | 23950 ft | 384 kts | 179° |
| 2026-05-04 12:08 | 43.29420 | 1.88784 | 23949 ft | 384 kts | 179° |
| 2026-05-04 12:08 | 43.26751 | 1.89039 | 23950 ft | 384 kts | 179° |
| 2026-05-04 12:08 | 43.24089 | 1.89293 | 23946 ft | 384 kts | 179° |
| 2026-05-04 12:09 | 43.21419 | 1.89549 | 23947 ft | 384 kts | 179° |
| 2026-05-04 12:09 | 43.18753 | 1.89805 | 23949 ft | 384 kts | 180° |
| 2026-05-04 12:09 | 43.16088 | 1.90060 | 23943 ft | 384 kts | 180° |
| 2026-05-04 12:09 | 43.13457 | 1.90310 | 23945 ft | 383 kts | 180° |
| 2026-05-04 12:10 | 43.10796 | 1.90564 | 23939 ft | 384 kts | 180° |
| 2026-05-04 12:10 | 43.08128 | 1.90817 | 23933 ft | 384 kts | 180° |
| 2026-05-04 12:10 | 43.05461 | 1.91070 | 23933 ft | 384 kts | 180° |
| 2026-05-04 12:10 | 43.02793 | 1.91323 | 23936 ft | 385 kts | 180° |
| 2026-05-04 12:11 | 43.00118 | 1.91577 | 23914 ft | 385 kts | 180° |
| 2026-05-04 12:11 | 42.97444 | 1.91833 | 23929 ft | 386 kts | 180° |
| 2026-05-04 12:11 | 42.94763 | 1.92087 | 23929 ft | 386 kts | 180° |
| 2026-05-04 12:11 | 42.92093 | 1.92340 | 23928 ft | 386 kts | 180° |
| 2026-05-04 12:12 | 42.89411 | 1.92594 | 23932 ft | 385 kts | 180° |
| 2026-05-04 12:12 | 42.86734 | 1.92847 | 23930 ft | 386 kts | 180° |
| 2026-05-04 12:12 | 42.84053 | 1.93100 | 23932 ft | 386 kts | 180° |
| 2026-05-04 12:12 | 42.81370 | 1.93352 | 23931 ft | 386 kts | 180° |
| 2026-05-04 12:13 | 42.78693 | 1.93604 | 23931 ft | 385 kts | 180° |
| 2026-05-04 12:14 | 42.60103 | 1.97264 | 23701 ft | 388 kts | 170° |
| 2026-05-04 12:15 | 42.57501 | 1.98210 | 23223 ft | 387 kts | 170° |
| 2026-05-04 12:15 | 42.54906 | 1.99146 | 22665 ft | 384 kts | 170° |
| 2026-05-04 12:15 | 42.52336 | 2.00071 | 22075 ft | 381 kts | 170° |
| 2026-05-04 12:15 | 42.49778 | 2.00987 | 21483 ft | 379 kts | 170° |
| 2026-05-04 12:16 | 42.47240 | 2.01895 | 20921 ft | 376 kts | 169° |
| 2026-05-04 12:16 | 42.44725 | 2.02795 | 20355 ft | 373 kts | 169° |
| 2026-05-04 12:16 | 42.42219 | 2.03689 | 19750 ft | 372 kts | 169° |
| 2026-05-04 12:16 | 42.39724 | 2.04580 | 19269 ft | 368 kts | 169° |
| 2026-05-04 12:17 | 42.37268 | 2.05457 | 18776 ft | 364 kts | 169° |
| 2026-05-04 12:17 | 42.34818 | 2.06331 | 18229 ft | 362 kts | 169° |
| 2026-05-04 12:17 | 42.32392 | 2.07192 | 17658 ft | 360 kts | 169° |
| 2026-05-04 12:17 | 42.29978 | 2.08050 | 17095 ft | 356 kts | 169° |
| 2026-05-04 12:18 | 42.27584 | 2.08900 | 16499 ft | 355 kts | 169° |
| 2026-05-04 12:18 | 42.25211 | 2.09742 | 16013 ft | 351 kts | 169° |
| 2026-05-04 12:18 | 42.22862 | 2.10575 | 15506 ft | 347 kts | 169° |
| 2026-05-04 12:18 | 42.20554 | 2.11396 | 15200 ft | 338 kts | 169° |
| 2026-05-04 12:19 | 42.18282 | 2.12200 | 15102 ft | 348 kts | 169° |
| 2026-05-04 12:19 | 42.15907 | 2.13037 | 14993 ft | 349 kts | 169° |
| 2026-05-04 12:19 | 42.13595 | 2.13855 | 14938 ft | 347 kts | 169° |
| 2026-05-04 12:19 | 42.11263 | 2.14680 | 14935 ft | 347 kts | 169° |
| 2026-05-04 12:20 | 42.08924 | 2.15507 | 14932 ft | 347 kts | 169° |
| 2026-05-04 12:20 | 42.06589 | 2.16331 | 14929 ft | 347 kts | 169° |
| 2026-05-04 12:20 | 42.04250 | 2.17157 | 14931 ft | 347 kts | 169° |
| 2026-05-04 12:20 | 42.01912 | 2.17980 | 14930 ft | 347 kts | 169° |
| 2026-05-04 12:21 | 41.99574 | 2.18803 | 14933 ft | 348 kts | 169° |
| 2026-05-04 12:21 | 41.97222 | 2.19628 | 14932 ft | 349 kts | 169° |
| 2026-05-04 12:21 | 41.94880 | 2.20453 | 14933 ft | 347 kts | 169° |
| 2026-05-04 12:21 | 41.92540 | 2.21277 | 14933 ft | 348 kts | 169° |
| 2026-05-04 12:22 | 41.90205 | 2.22099 | 14936 ft | 347 kts | 169° |
| 2026-05-04 12:22 | 41.87864 | 2.22919 | 14936 ft | 348 kts | 169° |
| 2026-05-04 12:22 | 41.85523 | 2.23739 | 14936 ft | 348 kts | 169° |
| 2026-05-04 12:22 | 41.83704 | 2.24375 | 14936 ft | 348 kts | 169° |
| 2026-05-04 12:23 | 41.81362 | 2.25195 | 14936 ft | 348 kts | 169° |
| 2026-05-04 12:23 | 41.79022 | 2.26014 | 14936 ft | 348 kts | 169° |
| 2026-05-04 12:23 | 41.76679 | 2.26834 | 14936 ft | 347 kts | 169° |
| 2026-05-04 12:23 | 41.74346 | 2.27649 | 14904 ft | 347 kts | 169° |
| 2026-05-04 12:24 | 41.72011 | 2.28464 | 14662 ft | 346 kts | 169° |
| 2026-05-04 12:24 | 41.69693 | 2.29274 | 14287 ft | 343 kts | 169° |
| 2026-05-04 12:24 | 41.67387 | 2.30079 | 13806 ft | 341 kts | 169° |
| 2026-05-04 12:24 | 41.65105 | 2.30874 | 13279 ft | 338 kts | 168° |
| 2026-05-04 12:25 | 41.62837 | 2.31664 | 12740 ft | 335 kts | 168° |
| 2026-05-04 12:25 | 41.61347 | 2.32183 | 12403 ft | 333 kts | 168° |
| 2026-05-04 12:25 | 41.58364 | 2.33221 | 11710 ft | 329 kts | 168° |
| 2026-05-04 12:25 | 41.56186 | 2.33978 | 11184 ft | 327 kts | 168° |
| 2026-05-04 12:26 | 41.53989 | 2.34738 | 10634 ft | 324 kts | 168° |
| 2026-05-04 12:26 | 41.51813 | 2.35493 | 10152 ft | 322 kts | 167° |
| 2026-05-04 12:26 | 41.49652 | 2.36242 | 9646 ft | 320 kts | 167° |
| 2026-05-04 12:26 | 41.47499 | 2.36988 | 9108 ft | 319 kts | 167° |
| 2026-05-04 12:27 | 41.45357 | 2.37731 | 8564 ft | 317 kts | 167° |
| 2026-05-04 12:27 | 41.43230 | 2.38467 | 8029 ft | 316 kts | 167° |
| 2026-05-04 12:27 | 41.41103 | 2.39202 | 7476 ft | 315 kts | 167° |
| 2026-05-04 12:27 | 41.38987 | 2.39934 | 7011 ft | 313 kts | 167° |
| 2026-05-04 12:28 | 41.36884 | 2.40661 | 6513 ft | 312 kts | 167° |
| 2026-05-04 12:28 | 41.34800 | 2.41382 | 6206 ft | 304 kts | 167° |
| 2026-05-04 12:28 | 41.33436 | 2.41853 | 6114 ft | 311 kts | 168° |
| 2026-05-04 12:28 | 41.30620 | 2.42820 | 5987 ft | 310 kts | 167° |
| 2026-05-04 12:29 | 41.28550 | 2.43533 | 5961 ft | 307 kts | 167° |
| 2026-05-04 12:29 | 41.27175 | 2.44006 | 5962 ft | 309 kts | 167° |
| 2026-05-04 12:29 | 41.25089 | 2.44725 | 5962 ft | 309 kts | 167° |
| 2026-05-04 12:29 | 41.23004 | 2.45442 | 5960 ft | 309 kts | 167° |
| 2026-05-04 12:30 | 41.20923 | 2.46157 | 5962 ft | 309 kts | 167° |
| 2026-05-04 12:30 | 41.18843 | 2.46871 | 5956 ft | 309 kts | 167° |
| 2026-05-04 12:30 | 41.16761 | 2.47586 | 5962 ft | 309 kts | 167° |
| 2026-05-04 12:30 | 41.14689 | 2.48296 | 5957 ft | 309 kts | 167° |
| 2026-05-04 12:31 | 41.12602 | 2.49011 | 5962 ft | 309 kts | 167° |
| 2026-05-04 12:31 | 41.10518 | 2.49726 | 5961 ft | 309 kts | 167° |
| 2026-05-04 12:31 | 41.08440 | 2.50437 | 5960 ft | 308 kts | 167° |
| 2026-05-04 12:31 | 41.06362 | 2.51148 | 5965 ft | 308 kts | 167° |
| 2026-05-04 12:32 | 41.04286 | 2.51858 | 5961 ft | 308 kts | 167° |
| 2026-05-04 12:32 | 41.00132 | 2.53277 | 5964 ft | 309 kts | 167° |
| 2026-05-04 12:32 | 40.98050 | 2.53988 | 5962 ft | 309 kts | 167° |
| 2026-05-04 12:33 | 40.95973 | 2.54696 | 5971 ft | 308 kts | 167° |
| 2026-05-04 12:33 | 40.93897 | 2.55404 | 5965 ft | 309 kts | 167° |
| 2026-05-04 12:33 | 40.91817 | 2.56113 | 5968 ft | 309 kts | 167° |
| 2026-05-04 12:33 | 40.89739 | 2.56820 | 5964 ft | 308 kts | 167° |
| 2026-05-04 12:34 | 40.87660 | 2.57527 | 5956 ft | 308 kts | 167° |
| 2026-05-04 12:34 | 40.85594 | 2.58231 | 5967 ft | 306 kts | 167° |
| 2026-05-04 12:34 | 40.83559 | 2.58923 | 5968 ft | 307 kts | 167° |
| 2026-05-04 12:34 | 40.81493 | 2.59623 | 5960 ft | 308 kts | 167° |
| 2026-05-04 12:35 | 40.79383 | 2.60339 | 5972 ft | 307 kts | 167° |
| 2026-05-04 12:35 | 40.77345 | 2.61030 | 5959 ft | 307 kts | 167° |
| 2026-05-04 12:35 | 40.75245 | 2.61742 | 5966 ft | 308 kts | 167° |
| 2026-05-04 12:35 | 40.73203 | 2.62433 | 5969 ft | 307 kts | 167° |
| 2026-05-04 12:36 | 40.71131 | 2.63134 | 5967 ft | 307 kts | 167° |
| 2026-05-04 12:36 | 40.69060 | 2.63834 | 5960 ft | 307 kts | 167° |
| 2026-05-04 12:36 | 40.66962 | 2.64543 | 5963 ft | 308 kts | 167° |
| 2026-05-04 12:36 | 40.64888 | 2.65243 | 5968 ft | 308 kts | 167° |
| 2026-05-04 12:37 | 40.62844 | 2.65933 | 5967 ft | 308 kts | 167° |
| 2026-05-04 12:37 | 40.60775 | 2.66632 | 5964 ft | 305 kts | 167° |
| 2026-05-04 12:37 | 40.58776 | 2.67308 | 5953 ft | 288 kts | 167° |
| 2026-05-04 12:37 | 40.56894 | 2.67945 | 5962 ft | 270 kts | 168° |
| 2026-05-04 12:38 | 40.55129 | 2.68542 | 5961 ft | 254 kts | 168° |
| 2026-05-04 12:38 | 40.53476 | 2.69100 | 5961 ft | 238 kts | 168° |
| 2026-05-04 12:38 | 40.51925 | 2.69623 | 5959 ft | 223 kts | 168° |
| 2026-05-04 12:38 | 40.50400 | 2.70145 | 5972 ft | 247 kts | 165° |
| 2026-05-04 12:39 | 40.48739 | 2.71114 | 5970 ft | 267 kts | 153° |
| 2026-05-04 12:39 | 40.47121 | 2.72313 | 5966 ft | 267 kts | 153° |
| 2026-05-04 12:39 | 40.45504 | 2.73508 | 5966 ft | 267 kts | 153° |
| 2026-05-04 12:39 | 40.43880 | 2.74698 | 5964 ft | 267 kts | 154° |
| 2026-05-04 12:40 | 40.42255 | 2.75882 | 5970 ft | 267 kts | 154° |
| 2026-05-04 12:40 | 40.40630 | 2.77062 | 5967 ft | 267 kts | 154° |
| 2026-05-04 12:40 | 40.39003 | 2.78240 | 5966 ft | 267 kts | 154° |
| 2026-05-04 12:40 | 40.37374 | 2.79418 | 5968 ft | 267 kts | 154° |
| 2026-05-04 12:41 | 40.35749 | 2.80593 | 5965 ft | 267 kts | 154° |
| 2026-05-04 12:41 | 40.34116 | 2.81773 | 5965 ft | 267 kts | 154° |
| 2026-05-04 12:41 | 40.32492 | 2.82946 | 5965 ft | 266 kts | 154° |
| 2026-05-04 12:41 | 40.30908 | 2.84092 | 5961 ft | 252 kts | 154° |
| 2026-05-04 12:42 | 40.29419 | 2.85170 | 5961 ft | 236 kts | 154° |
| 2026-05-04 12:42 | 40.28000 | 2.86195 | 5968 ft | 235 kts | 154° |
| 2026-05-04 12:42 | 40.26569 | 2.87224 | 5966 ft | 234 kts | 154° |
| 2026-05-04 12:42 | 40.25140 | 2.88250 | 5966 ft | 234 kts | 154° |
| 2026-05-04 12:43 | 40.23716 | 2.89273 | 5969 ft | 234 kts | 154° |
| 2026-05-04 12:43 | 40.22283 | 2.90303 | 5964 ft | 234 kts | 154° |
| 2026-05-04 12:43 | 40.20851 | 2.91334 | 5963 ft | 237 kts | 155° |
| 2026-05-04 12:43 | 40.19406 | 2.92373 | 5966 ft | 237 kts | 155° |
| 2026-05-04 12:44 | 40.17963 | 2.93410 | 5963 ft | 236 kts | 155° |
| 2026-05-04 12:44 | 40.16520 | 2.94445 | 5967 ft | 236 kts | 155° |
| 2026-05-04 12:44 | 40.15083 | 2.95477 | 5969 ft | 237 kts | 155° |
| 2026-05-04 12:44 | 40.13635 | 2.96517 | 5969 ft | 237 kts | 155° |
| 2026-05-04 12:45 | 40.12192 | 2.97552 | 5963 ft | 237 kts | 155° |
| 2026-05-04 12:45 | 40.10749 | 2.98587 | 5963 ft | 237 kts | 155° |
| 2026-05-04 12:45 | 40.09302 | 2.99624 | 5964 ft | 237 kts | 155° |
| 2026-05-04 12:45 | 40.07864 | 3.00654 | 5969 ft | 236 kts | 155° |
| 2026-05-04 12:46 | 40.06418 | 3.01690 | 5973 ft | 236 kts | 155° |
| 2026-05-04 12:46 | 40.04999 | 3.02706 | 5971 ft | 236 kts | 155° |
| 2026-05-04 12:46 | 40.03552 | 3.03741 | 5969 ft | 237 kts | 155° |
| 2026-05-04 12:46 | 40.02113 | 3.04770 | 5967 ft | 234 kts | 155° |
| 2026-05-04 12:47 | 40.00739 | 3.05758 | 5960 ft | 217 kts | 155° |
| 2026-05-04 12:47 | 39.99471 | 3.06673 | 5960 ft | 200 kts | 156° |
| 2026-05-04 12:47 | 39.98267 | 3.07535 | 5971 ft | 202 kts | 157° |
| 2026-05-04 12:47 | 39.97032 | 3.08410 | 5966 ft | 200 kts | 157° |
| 2026-05-04 12:48 | 39.95812 | 3.09277 | 5968 ft | 200 kts | 156° |
| 2026-05-04 12:48 | 39.94590 | 3.10146 | 5968 ft | 200 kts | 156° |
| 2026-05-04 12:48 | 39.93365 | 3.11005 | 5944 ft | 197 kts | 161° |
| 2026-05-04 12:48 | 39.92064 | 3.11398 | 5699 ft | 190 kts | 185° |
| 2026-05-04 12:49 | 39.90759 | 3.11231 | 5437 ft | 189 kts | 190° |
| 2026-05-04 12:49 | 39.89453 | 3.11047 | 5147 ft | 189 kts | 189° |
| 2026-05-04 12:49 | 39.88147 | 3.10879 | 4924 ft | 184 kts | 189° |
| 2026-05-04 12:49 | 39.86885 | 3.10723 | 4517 ft | 184 kts | 189° |
| 2026-05-04 12:50 | 39.85604 | 3.10564 | 4102 ft | 185 kts | 188° |
| 2026-05-04 12:50 | 39.84327 | 3.10407 | 3712 ft | 184 kts | 188° |
| 2026-05-04 12:50 | 39.83049 | 3.10247 | 3313 ft | 183 kts | 188° |
| 2026-05-04 12:50 | 39.81777 | 3.10090 | 2931 ft | 183 kts | 188° |
| 2026-05-04 12:51 | 39.80526 | 3.09936 | 2639 ft | 178 kts | 188° |
| 2026-05-04 12:51 | 39.79296 | 3.09784 | 2523 ft | 181 kts | 188° |
| 2026-05-04 12:51 | 39.78040 | 3.09628 | 2475 ft | 180 kts | 188° |
| 2026-05-04 12:51 | 39.76808 | 3.09475 | 2472 ft | 178 kts | 188° |
| 2026-05-04 12:52 | 39.75573 | 3.09326 | 2467 ft | 176 kts | 188° |
| 2026-05-04 12:52 | 39.74325 | 3.09173 | 2466 ft | 182 kts | 188° |
| 2026-05-04 12:52 | 39.73083 | 3.09021 | 2469 ft | 180 kts | 188° |
| 2026-05-04 12:52 | 39.71873 | 3.08812 | 2469 ft | 166 kts | 199° |
| 2026-05-04 12:53 | 39.70926 | 3.08189 | 2472 ft | 152 kts | 219° |
| 2026-05-04 12:53 | 39.70166 | 3.07162 | 2476 ft | 160 kts | 232° |
| 2026-05-04 12:53 | 39.69541 | 3.05961 | 2473 ft | 159 kts | 238° |
| 2026-05-04 12:53 | 39.68970 | 3.04734 | 2476 ft | 164 kts | 239° |
| 2026-05-04 12:54 | 39.68383 | 3.03473 | 2487 ft | 156 kts | 238° |
| 2026-05-04 12:54 | 39.67813 | 3.02262 | 2475 ft | 162 kts | 237° |
| 2026-05-04 12:54 | 39.67225 | 3.01011 | 2475 ft | 164 kts | 239° |
| 2026-05-04 12:54 | 39.66621 | 2.99722 | 2474 ft | 166 kts | 237° |
| 2026-05-04 12:55 | 39.66027 | 2.98452 | 2470 ft | 162 kts | 238° |
| 2026-05-04 12:55 | 39.65447 | 2.97221 | 2475 ft | 161 kts | 237° |
| 2026-05-04 12:55 | 39.64856 | 2.95961 | 2471 ft | 164 kts | 239° |
| 2026-05-04 12:55 | 39.64278 | 2.94673 | 2478 ft | 166 kts | 241° |
| 2026-05-04 12:56 | 39.63652 | 2.93419 | 2470 ft | 162 kts | 236° |
| 2026-05-04 12:56 | 39.63090 | 2.92224 | 2471 ft | 157 kts | 238° |
| 2026-05-04 12:56 | 39.62521 | 2.91006 | 2472 ft | 154 kts | 238° |
| 2026-05-04 12:56 | 39.61990 | 2.89873 | 2454 ft | 145 kts | 238° |
| 2026-05-04 12:57 | 39.61449 | 2.88724 | 2297 ft | 145 kts | 237° |
| 2026-05-04 12:57 | 39.60931 | 2.87625 | 2094 ft | 151 kts | 238° |
| 2026-05-04 12:57 | 39.60374 | 2.86440 | 1889 ft | 155 kts | 237° |
| 2026-05-04 12:57 | 39.59833 | 2.85289 | 1690 ft | 142 kts | 236° |
| 2026-05-04 12:58 | 39.59350 | 2.84260 | 1587 ft | 130 kts | 237° |
| 2026-05-04 12:58 | 39.58857 | 2.83217 | 1690 ft | 138 kts | 237° |
| 2026-05-04 12:58 | 39.58300 | 2.82011 | 1496 ft | 176 kts | 237° |
| 2026-05-04 12:58 | 39.57692 | 2.80671 | 1002 ft | 164 kts | 238° |
| 2026-05-04 12:59 | 39.57105 | 2.79451 | 677 ft | 145 kts | 237° |
| 2026-05-04 12:59 | 39.56605 | 2.78409 | 486 ft | 131 kts | 236° |
| 2026-05-04 12:59 | 39.56127 | 2.77422 | 325 ft | 132 kts | 237° |
| 2026-05-04 12:59 | 39.55677 | 2.76459 | 159 ft | 118 kts | 236° |
| 2026-05-04 13:00 | 39.55254 | 2.75570 | 28 ft | 114 kts | 238° |
| 2026-05-04 13:00 | 39.54914 | 2.74861 | 28 ft | 79 kts | 238° |
| 2026-05-04 13:00 | 39.54666 | 2.74340 | 34 ft | 49 kts | 238° |
| 2026-05-04 13:00 | 39.54558 | 2.73987 | 34 ft | 32 kts | 264° |
| 2026-05-04 13:01 | 39.54562 | 2.73716 | 35 ft | 28 kts | 290° |
| 2026-05-04 13:01 | 39.54657 | 2.73510 | 35 ft | 24 kts | 324° |
| 2026-05-04 13:01 | 39.54720 | 2.73480 | 35 ft | 1 kts | 340° |
| 2026-05-04 13:01 | 39.54737 | 2.73475 | 35 ft | 4 kts | 359° |
| 2026-05-04 13:02 | 39.54753 | 2.73504 | 33 ft | 5 kts | 88° |
| 2026-05-04 13:02 | 39.54742 | 2.73563 | 35 ft | 9 kts | 104° |
| 2026-05-04 13:02 | 39.54715 | 2.73615 | 35 ft | 10 kts | 132° |
| 2026-05-04 13:02 | 39.54704 | 2.73630 | 35 ft | 10 kts | 143° |
| 2026-05-04 13:03 | 39.54635 | 2.73627 | 35 ft | 10 kts | 189° |
| 2026-05-04 13:03 | 39.54587 | 2.73657 | 34 ft | 8 kts | 90° |
| 2026-05-04 13:03 | 39.54607 | 2.73741 | 33 ft | 12 kts | 68° |
| 2026-05-04 13:03 | 39.54656 | 2.73838 | 34 ft | 15 kts | 57° |
| 2026-05-04 13:04 | 39.54735 | 2.73942 | 33 ft | 17 kts | 21° |
| 2026-05-04 13:04 | 39.54841 | 2.73950 | 31 ft | 16 kts | 24° |
| 2026-05-04 13:04 | 39.54941 | 2.73916 | 33 ft | 16 kts | 321° |
| 2026-05-04 13:04 | 39.55013 | 2.73826 | 33 ft | 10 kts | 303° |
| 2026-05-04 13:05 | 39.55018 | 2.73736 | 33 ft | 9 kts | 236° |
| 2026-05-04 13:05 | 39.54995 | 2.73713 | 33 ft | 0 kts | 216° |